首页
METAR-TAF:

METAR-TAF

机场 :

直布羅陀機場

直布罗陀, 直布罗陀

纬度: 36-09N, 经度: 005-21W, 海拔: 5米

当前天气观测

该预报发布于39分钟前的13:50 UTC
风速11节,风向西
温度 16°C
湿度 63%
气压 1025 hPa
能见度10公里或以上
少量云层高于3000英尺

METAR: LXGB 261350Z 28011KT 9999 FEW030 16/09 Q1025 NOSIG RMK BLU BLU

时间: 15:29 (14:29 UTC)

预报

该预报发布于1小时和46分钟前的12:43 UTC
预报有效从26日的 12点(UTC)到 26日的 21点(UTC)
风速11节,风向西
能见度10公里或以上
少量云层高于3000英尺

TAF: LXGB 261243Z 2612/2621 26011KT 9999 FEW030

超过4000个机场的气象观测和天气预报(METAR&TAF报告)。

可查询的气象台以黄色和红色小点在地图上表示。

将鼠标移到小点上方,可查看气象台名称。

然后点击查看天气观测和预报。

如需切换地图:点击带黑十字的绿色按钮放大地图;点击带横线的绿色按钮缩小地图;或者点击绿色箭头查看邻近地区的地图。


METAR-TAF: